sensor_id;sensor_type;location;lat;lon;timestamp;pressure;altitude;pressure_sealevel;temperature;humidity
55604;BME280;41468;48.838;9.330;2023-01-16T00:01:59;97208.13;;;4.49;67.14
55604;BME280;41468;48.838;9.330;2023-01-16T00:04:31;97204.66;;;4.49;68.41
55604;BME280;41468;48.838;9.330;2023-01-16T00:07:00;97185.81;;;4.52;68.32
55604;BME280;41468;48.838;9.330;2023-01-16T00:09:27;97189.78;;;4.58;67.92
55604;BME280;41468;48.838;9.330;2023-01-16T00:11:53;97183.38;;;4.67;67.74
55604;BME280;41468;48.838;9.330;2023-01-16T00:14:20;97171.13;;;4.73;67.17
55604;BME280;41468;48.838;9.330;2023-01-16T00:16:47;97172.28;;;4.72;67.63
55604;BME280;41468;48.838;9.330;2023-01-16T00:19:13;97171.13;;;4.73;66.75
55604;BME280;41468;48.838;9.330;2023-01-16T00:21:40;97167.78;;;4.79;67.24
55604;BME280;41468;48.838;9.330;2023-01-16T00:24:07;97163.44;;;4.75;66.72
55604;BME280;41468;48.838;9.330;2023-01-16T00:26:34;97155.81;;;4.80;66.27
55604;BME280;41468;48.838;9.330;2023-01-16T00:29:01;97160.13;;;4.81;66.72
55604;BME280;41468;48.838;9.330;2023-01-16T00:31:28;97147.38;;;4.82;66.39
55604;BME280;41468;48.838;9.330;2023-01-16T00:33:55;97141.03;;;4.74;66.45
55604;BME280;41468;48.838;9.330;2023-01-16T00:36:21;97144.19;;;4.76;66.58
55604;BME280;41468;48.838;9.330;2023-01-16T00:38:48;97140.41;;;4.81;66.58
55604;BME280;41468;48.838;9.330;2023-01-16T00:41:15;97146.72;;;4.88;66.14
55604;BME280;41468;48.838;9.330;2023-01-16T00:43:42;97140.09;;;4.86;66.20
55604;BME280;41468;48.838;9.330;2023-01-16T00:46:08;97135.88;;;4.88;66.16
55604;BME280;41468;48.838;9.330;2023-01-16T00:48:35;97121.97;;;4.86;65.95
55604;BME280;41468;48.838;9.330;2023-01-16T00:51:02;97123.22;;;4.93;67.29
55604;BME280;41468;48.838;9.330;2023-01-16T00:53:28;97117.19;;;4.80;66.14
55604;BME280;41468;48.838;9.330;2023-01-16T00:55:55;97111.16;;;4.86;65.55
55604;BME280;41468;48.838;9.330;2023-01-16T00:58:21;97102.56;;;4.81;66.49
55604;BME280;41468;48.838;9.330;2023-01-16T01:00:54;97104.09;;;4.82;67.03
55604;BME280;41468;48.838;9.330;2023-01-16T01:03:21;97094.84;;;4.83;67.16
55604;BME280;41468;48.838;9.330;2023-01-16T01:05:48;97092.63;;;4.88;65.52
55604;BME280;41468;48.838;9.330;2023-01-16T01:08:14;97086.81;;;4.86;65.75
55604;BME280;41468;48.838;9.330;2023-01-16T01:10:41;97089.03;;;4.81;66.25
55604;BME280;41468;48.838;9.330;2023-01-16T01:13:07;97084.75;;;4.80;66.24
55604;BME280;41468;48.838;9.330;2023-01-16T01:15:35;97086.81;;;4.86;66.87
55604;BME280;41468;48.838;9.330;2023-01-16T01:18:02;97075.44;;;5.00;65.44
55604;BME280;41468;48.838;9.330;2023-01-16T01:20:28;97076.94;;;4.98;65.07
55604;BME280;41468;48.838;9.330;2023-01-16T01:22:55;97066.22;;;5.05;65.02
55604;BME280;41468;48.838;9.330;2023-01-16T01:25:22;97067.34;;;5.00;65.63
55604;BME280;41468;48.838;9.330;2023-01-16T01:27:49;97060.97;;;4.89;65.24
55604;BME280;41468;48.838;9.330;2023-01-16T01:30:16;97057.09;;;4.90;66.20
55604;BME280;41468;48.838;9.330;2023-01-16T01:32:42;97055.47;;;4.85;66.38
55604;BME280;41468;48.838;9.330;2023-01-16T01:35:09;97045.38;;;4.82;65.84
55604;BME280;41468;48.838;9.330;2023-01-16T01:37:36;97037.66;;;4.81;66.16
55604;BME280;41468;48.838;9.330;2023-01-16T01:40:03;97046.41;;;4.74;66.71
55604;BME280;41468;48.838;9.330;2023-01-16T01:42:39;97048.31;;;4.74;66.18
55604;BME280;41468;48.838;9.330;2023-01-16T01:47:46;97034.44;;;4.75;66.64
55604;BME280;41468;48.838;9.330;2023-01-16T01:53:32;97028.34;;;4.59;66.88
55604;BME280;41468;48.838;9.330;2023-01-16T01:56:03;97023.13;;;4.47;67.43
55604;BME280;41468;48.838;9.330;2023-01-16T01:58:32;97009.84;;;4.38;67.90
55604;BME280;41468;48.838;9.330;2023-01-16T02:01:00;97002.72;;;4.30;68.08
55604;BME280;41468;48.838;9.330;2023-01-16T02:03:43;96989.75;;;4.16;68.64
55604;BME280;41468;48.838;9.330;2023-01-16T02:06:18;96983.84;;;4.10;68.88
55604;BME280;41468;48.838;9.330;2023-01-16T02:08:47;96975.25;;;4.05;69.30
55604;BME280;41468;48.838;9.330;2023-01-16T02:11:32;96969.28;;;4.15;69.14
55604;BME280;41468;48.838;9.330;2023-01-16T02:14:06;96969.28;;;4.15;69.10
55604;BME280;41468;48.838;9.330;2023-01-16T02:16:33;96954.91;;;4.11;68.96
55604;BME280;41468;48.838;9.330;2023-01-16T02:25:22;96915.00;;;4.01;69.39
55604;BME280;41468;48.838;9.330;2023-01-16T02:34:03;96888.81;;;4.05;69.74
55604;BME280;41468;48.838;9.330;2023-01-16T02:40:02;96881.28;;;4.14;69.60
55604;BME280;41468;48.838;9.330;2023-01-16T02:45:02;96872.75;;;4.12;70.18
55604;BME280;41468;48.838;9.330;2023-01-16T02:47:35;96864.22;;;4.10;69.70
55604;BME280;41468;48.838;9.330;2023-01-16T02:55:37;96828.47;;;3.93;70.29
55604;BME280;41468;48.838;9.330;2023-01-16T02:58:06;96820.00;;;3.95;70.07
55604;BME280;41468;48.838;9.330;2023-01-16T03:00:34;96810.06;;;4.03;70.24
55604;BME280;41468;48.838;9.330;2023-01-16T03:05:51;96798.16;;;4.04;70.39
55604;BME280;41468;48.838;9.330;2023-01-16T03:08:34;96787.28;;;4.00;70.40
55604;BME280;41468;48.838;9.330;2023-01-16T03:11:17;96780.66;;;3.97;70.50
55604;BME280;41468;48.838;9.330;2023-01-16T03:14:15;96782.25;;;3.98;70.45
55604;BME280;41468;48.838;9.330;2023-01-16T03:17:17;96770.78;;;4.05;70.00
55604;BME280;41468;48.838;9.330;2023-01-16T03:20:48;96759.50;;;3.99;70.08
55604;BME280;41468;48.838;9.330;2023-01-16T03:25:48;96750.66;;;4.03;70.38
55604;BME280;41468;48.838;9.330;2023-01-16T03:28:29;96753.00;;;4.04;70.39
55604;BME280;41468;48.838;9.330;2023-01-16T03:31:15;96746.72;;;3.96;70.58
55604;BME280;41468;48.838;9.330;2023-01-16T03:33:55;96739.03;;;3.98;70.59
55604;BME280;41468;48.838;9.330;2023-01-16T03:36:34;96735.63;;;4.02;70.18
55604;BME280;41468;48.838;9.330;2023-01-16T03:39:06;96727.50;;;4.02;70.39
55604;BME280;41468;48.838;9.330;2023-01-16T03:41:35;96726.34;;;4.03;70.20
55604;BME280;41468;48.838;9.330;2023-01-16T03:44:08;96716.44;;;4.10;70.24
55604;BME280;41468;48.838;9.330;2023-01-16T03:46:44;96706.25;;;4.00;69.73
55604;BME280;41468;48.838;9.330;2023-01-16T03:49:37;96690.63;;;4.13;70.03
55604;BME280;41468;48.838;9.330;2023-01-16T03:52:05;96697.53;;;4.10;70.46
55604;BME280;41468;48.838;9.330;2023-01-16T03:54:44;96688.97;;;4.05;69.95
55604;BME280;41468;48.838;9.330;2023-01-16T03:57:30;96688.94;;;4.01;69.65
55604;BME280;41468;48.838;9.330;2023-01-16T03:59:59;96681.41;;;4.14;69.27
55604;BME280;41468;48.838;9.330;2023-01-16T04:07:42;96650.50;;;4.11;69.44
55604;BME280;41468;48.838;9.330;2023-01-16T04:10:13;96637.53;;;4.24;68.46
55604;BME280;41468;48.838;9.330;2023-01-16T04:12:45;96638.97;;;4.14;69.27
55604;BME280;41468;48.838;9.330;2023-01-16T04:15:15;96628.88;;;4.11;69.41
55604;BME280;41468;48.838;9.330;2023-01-16T04:17:43;96611.88;;;4.11;68.69
55604;BME280;41468;48.838;9.330;2023-01-16T04:20:10;96604.13;;;4.06;69.59
55604;BME280;41468;48.838;9.330;2023-01-16T04:22:37;96600.75;;;4.16;69.29
55604;BME280;41468;48.838;9.330;2023-01-16T04:25:06;96598.03;;;4.12;69.29
55604;BME280;41468;48.838;9.330;2023-01-16T04:27:34;96580.19;;;4.04;69.82
55604;BME280;41468;48.838;9.330;2023-01-16T04:30:04;96570.78;;;3.94;70.16
55604;BME280;41468;48.838;9.330;2023-01-16T04:32:31;96565.16;;;4.07;68.94
55604;BME280;41468;48.838;9.330;2023-01-16T04:34:57;96566.97;;;3.95;70.18
55604;BME280;41468;48.838;9.330;2023-01-16T04:37:24;96563.34;;;3.84;69.80
55604;BME280;41468;48.838;9.330;2023-01-16T04:39:51;96554.41;;;3.80;70.29
55604;BME280;41468;48.838;9.330;2023-01-16T04:42:19;96559.16;;;3.90;70.33
55604;BME280;41468;48.838;9.330;2023-01-16T04:44:46;96547.47;;;3.79;71.14
55604;BME280;41468;48.838;9.330;2023-01-16T04:47:12;96539.69;;;3.74;70.93
55604;BME280;41468;48.838;9.330;2023-01-16T04:49:39;96534.88;;;3.60;71.90
55604;BME280;41468;48.838;9.330;2023-01-16T04:52:05;96518.41;;;3.69;71.10
55604;BME280;41468;48.838;9.330;2023-01-16T04:54:32;96507.97;;;3.67;71.60
55604;BME280;41468;48.838;9.330;2023-01-16T04:56:59;96498.78;;;3.72;71.34
55604;BME280;41468;48.838;9.330;2023-01-16T04:59:27;96498.59;;;3.58;71.88
55604;BME280;41468;48.838;9.330;2023-01-16T05:01:53;96481.75;;;3.68;71.38
55604;BME280;41468;48.838;9.330;2023-01-16T05:04:20;96469.53;;;3.78;69.88
55604;BME280;41468;48.838;9.330;2023-01-16T05:06:47;96462.31;;;3.85;70.57
55604;BME280;41468;48.838;9.330;2023-01-16T05:09:14;96447.97;;;3.81;70.04
55604;BME280;41468;48.838;9.330;2023-01-16T05:11:41;96445.34;;;3.85;69.49
55604;BME280;41468;48.838;9.330;2023-01-16T05:14:08;96446.50;;;3.87;69.38
55604;BME280;41468;48.838;9.330;2023-01-16T05:16:35;96429.13;;;3.85;69.83
55604;BME280;41468;48.838;9.330;2023-01-16T05:19:06;96424.97;;;3.94;69.36
55604;BME280;41468;48.838;9.330;2023-01-16T05:21:33;96422.28;;;3.94;69.40
55604;BME280;41468;48.838;9.330;2023-01-16T05:23:59;96416.81;;;3.87;69.16
55604;BME280;41468;48.838;9.330;2023-01-16T05:26:26;96403.34;;;3.91;69.04
55604;BME280;41468;48.838;9.330;2023-01-16T05:28:53;96396.63;;;4.11;68.91
55604;BME280;41468;48.838;9.330;2023-01-16T05:31:19;96392.66;;;4.02;68.98
55604;BME280;41468;48.838;9.330;2023-01-16T05:33:46;96382.63;;;4.02;69.45
55604;BME280;41468;48.838;9.330;2023-01-16T05:36:13;96376.03;;;3.99;68.85
55604;BME280;41468;48.838;9.330;2023-01-16T05:38:40;96372.88;;;3.90;68.87
55604;BME280;41468;48.838;9.330;2023-01-16T05:41:07;96370.13;;;3.87;69.15
55604;BME280;41468;48.838;9.330;2023-01-16T05:43:33;96357.78;;;3.86;69.56
55604;BME280;41468;48.838;9.330;2023-01-16T05:46:00;96353.50;;;3.81;69.81
55604;BME280;41468;48.838;9.330;2023-01-16T05:48:26;96345.03;;;3.83;69.13
55604;BME280;41468;48.838;9.330;2023-01-16T05:51:03;96336.16;;;3.82;69.34
55604;BME280;41468;48.838;9.330;2023-01-16T05:53:30;96323.06;;;3.84;69.75
55604;BME280;41468;48.838;9.330;2023-01-16T05:55:58;96318.28;;;3.70;70.04
55604;BME280;41468;48.838;9.330;2023-01-16T05:58:24;96310.63;;;3.76;72.45
55604;BME280;41468;48.838;9.330;2023-01-16T06:00:56;96301.47;;;3.84;72.14
55604;BME280;41468;48.838;9.330;2023-01-16T06:03:22;96301.50;;;3.88;70.04
55604;BME280;41468;48.838;9.330;2023-01-16T06:05:49;96289.50;;;3.82;70.04
55604;BME280;41468;48.838;9.330;2023-01-16T06:08:15;96281.66;;;3.66;70.71
55604;BME280;41468;48.838;9.330;2023-01-16T06:10:42;96279.38;;;3.71;70.05
55604;BME280;41468;48.838;9.330;2023-01-16T06:13:11;96278.66;;;3.78;70.07
55604;BME280;41468;48.838;9.330;2023-01-16T06:15:38;96265.88;;;3.71;70.14
55604;BME280;41468;48.838;9.330;2023-01-16T06:18:04;96246.59;;;3.73;69.87
55604;BME280;41468;48.838;9.330;2023-01-16T06:20:31;96232.66;;;3.64;69.83
55604;BME280;41468;48.838;9.330;2023-01-16T06:22:57;96240.31;;;3.58;70.57
55604;BME280;41468;48.838;9.330;2023-01-16T06:25:24;96236.06;;;3.57;70.90
55604;BME280;41468;48.838;9.330;2023-01-16T06:27:51;96221.88;;;3.64;70.17
55604;BME280;41468;48.838;9.330;2023-01-16T06:30:18;96213.28;;;3.54;70.35
55604;BME280;41468;48.838;9.330;2023-01-16T06:32:48;96214.44;;;3.50;70.72
55604;BME280;41468;48.838;9.330;2023-01-16T06:35:17;96205.91;;;3.44;70.74
55604;BME280;41468;48.838;9.330;2023-01-16T06:37:44;96195.84;;;3.41;70.97
55604;BME280;41468;48.838;9.330;2023-01-16T06:40:11;96191.59;;;3.40;71.05
55604;BME280;41468;48.838;9.330;2023-01-16T06:42:38;96180.56;;;3.56;71.84
55604;BME280;41468;48.838;9.330;2023-01-16T06:45:05;96170.88;;;3.51;70.25
55604;BME280;41468;48.838;9.330;2023-01-16T06:47:31;96157.38;;;3.51;70.37
55604;BME280;41468;48.838;9.330;2023-01-16T06:49:58;96159.38;;;3.62;69.50
55604;BME280;41468;48.838;9.330;2023-01-16T06:52:25;96156.72;;;3.65;69.00
55604;BME280;41468;48.838;9.330;2023-01-16T06:54:51;96161.50;;;3.86;68.56
55604;BME280;41468;48.838;9.330;2023-01-16T06:57:18;96156.84;;;3.80;69.22
55604;BME280;41468;48.838;9.330;2023-01-16T06:59:45;96148.31;;;3.78;68.78
55604;BME280;41468;48.838;9.330;2023-01-16T07:02:11;96142.50;;;3.72;69.22
55604;BME280;41468;48.838;9.330;2023-01-16T07:04:38;96140.97;;;3.71;68.84
55604;BME280;41468;48.838;9.330;2023-01-16T07:07:04;96124.38;;;3.69;68.61
55604;BME280;41468;48.838;9.330;2023-01-16T07:09:31;96121.66;;;3.69;68.57
55604;BME280;41468;48.838;9.330;2023-01-16T07:11:58;96115.16;;;3.77;68.33
55604;BME280;41468;48.838;9.330;2023-01-16T07:14:31;96105.50;;;3.76;67.98
55604;BME280;41468;48.838;9.330;2023-01-16T07:17:16;96095.47;;;3.73;67.76
55604;BME280;41468;48.838;9.330;2023-01-16T07:20:02;96097.47;;;3.83;67.90
55604;BME280;41468;48.838;9.330;2023-01-16T07:22:47;96099.38;;;3.83;67.27
55604;BME280;41468;48.838;9.330;2023-01-16T07:25:26;96090.13;;;3.80;67.22
55604;BME280;41468;48.838;9.330;2023-01-16T07:27:55;96081.66;;;3.82;67.47
55604;BME280;41468;48.838;9.330;2023-01-16T07:30:22;96075.88;;;3.87;67.30
55604;BME280;41468;48.838;9.330;2023-01-16T07:32:49;96067.78;;;3.87;66.80
55604;BME280;41468;48.838;9.330;2023-01-16T07:35:16;96070.13;;;3.92;66.71
55604;BME280;41468;48.838;9.330;2023-01-16T07:37:42;96068.59;;;3.94;66.55
55604;BME280;41468;48.838;9.330;2023-01-16T07:40:09;96069.34;;;3.91;66.83
55604;BME280;41468;48.838;9.330;2023-01-16T07:42:36;96065.13;;;3.97;66.62
55604;BME280;41468;48.838;9.330;2023-01-16T07:45:03;96060.88;;;3.96;67.05
55604;BME280;41468;48.838;9.330;2023-01-16T07:47:30;96060.13;;;3.99;67.35
55604;BME280;41468;48.838;9.330;2023-01-16T07:49:59;96049.34;;;3.99;67.29
55604;BME280;41468;48.838;9.330;2023-01-16T07:52:27;96042.78;;;4.01;67.02
55604;BME280;41468;48.838;9.330;2023-01-16T07:54:54;96043.59;;;4.12;66.96
55604;BME280;41468;48.838;9.330;2023-01-16T07:57:20;96046.31;;;4.12;66.18
55604;BME280;41468;48.838;9.330;2023-01-16T07:59:52;96044.38;;;4.09;66.91
55604;BME280;41468;48.838;9.330;2023-01-16T08:02:19;96026.22;;;4.06;66.53
55604;BME280;41468;48.838;9.330;2023-01-16T08:04:46;96024.69;;;4.12;66.68
55604;BME280;41468;48.838;9.330;2023-01-16T08:07:13;96019.31;;;4.12;66.47
55604;BME280;41468;48.838;9.330;2023-01-16T08:09:39;96016.59;;;4.12;66.49
55604;BME280;41468;48.838;9.330;2023-01-16T08:12:06;95996.53;;;4.13;66.42
55604;BME280;41468;48.838;9.330;2023-01-16T08:14:32;95989.59;;;4.15;66.66
55604;BME280;41468;48.838;9.330;2023-01-16T08:16:59;95982.69;;;4.25;65.73
55604;BME280;41468;48.838;9.330;2023-01-16T08:19:26;95981.53;;;4.26;65.55
55604;BME280;41468;48.838;9.330;2023-01-16T08:21:52;95980.78;;;4.33;65.60
55604;BME280;41468;48.838;9.330;2023-01-16T08:24:19;95976.13;;;4.40;65.44
55604;BME280;41468;48.838;9.330;2023-01-16T08:26:45;95971.53;;;4.41;64.90
55604;BME280;41468;48.838;9.330;2023-01-16T08:29:12;95958.78;;;4.38;64.74
55604;BME280;41468;48.838;9.330;2023-01-16T08:31:39;95963.78;;;4.25;64.99
55604;BME280;41468;48.838;9.330;2023-01-16T08:34:06;95959.94;;;4.33;65.46
55604;BME280;41468;48.838;9.330;2023-01-16T08:36:32;95958.38;;;4.32;64.83
55604;BME280;41468;48.838;9.330;2023-01-16T08:38:59;95944.88;;;4.29;65.05
55604;BME280;41468;48.838;9.330;2023-01-16T08:41:31;95944.88;;;4.36;65.22
55604;BME280;41468;48.838;9.330;2023-01-16T08:44:16;95939.09;;;4.34;65.19
55604;BME280;41468;48.838;9.330;2023-01-16T08:47:10;95934.84;;;4.36;64.53
55604;BME280;41468;48.838;9.330;2023-01-16T08:49:56;95928.28;;;4.37;64.35
55604;BME280;41468;48.838;9.330;2023-01-16T08:52:42;95925.59;;;4.41;63.57
55604;BME280;41468;48.838;9.330;2023-01-16T08:55:09;95920.59;;;4.47;63.51
55604;BME280;41468;48.838;9.330;2023-01-16T08:57:36;95915.94;;;4.51;62.98
55604;BME280;41468;48.838;9.330;2023-01-16T09:00:04;95903.59;;;4.57;62.94
55604;BME280;41468;48.838;9.330;2023-01-16T09:02:32;95913.25;;;4.65;62.70
55604;BME280;41468;48.838;9.330;2023-01-16T09:05:03;95912.09;;;4.66;62.90
55604;BME280;41468;48.838;9.330;2023-01-16T09:07:29;95920.59;;;4.68;63.27
55604;BME280;41468;48.838;9.330;2023-01-16T09:09:56;95913.63;;;4.63;63.79
55604;BME280;41468;48.838;9.330;2023-01-16T09:12:23;95915.16;;;4.50;63.98
55604;BME280;41468;48.838;9.330;2023-01-16T09:15:08;95909.00;;;4.46;64.25
55604;BME280;41468;48.838;9.330;2023-01-16T09:17:35;95915.16;;;4.43;64.44
55604;BME280;41468;48.838;9.330;2023-01-16T09:20:02;95914.41;;;4.46;63.78
55604;BME280;41468;48.838;9.330;2023-01-16T09:22:29;95921.75;;;4.49;63.98
55604;BME280;41468;48.838;9.330;2023-01-16T09:25:00;95932.91;;;4.62;63.39
55604;BME280;41468;48.838;9.330;2023-01-16T09:27:27;95924.44;;;4.67;62.75
55604;BME280;41468;48.838;9.330;2023-01-16T09:29:53;95946.44;;;4.69;61.06
55604;BME280;41468;48.838;9.330;2023-01-16T09:32:20;95947.59;;;4.82;60.04
55604;BME280;41468;48.838;9.330;2023-01-16T09:34:47;95956.84;;;4.88;60.77
55604;BME280;41468;48.838;9.330;2023-01-16T09:37:14;95959.56;;;5.03;58.17
55604;BME280;41468;48.838;9.330;2023-01-16T09:39:41;95963.03;;;5.07;58.04
55604;BME280;41468;48.838;9.330;2023-01-16T09:45:00;95936.34;;;5.27;53.90
55604;BME280;41468;48.838;9.330;2023-01-16T09:47:29;95920.47;;;5.36;54.48
55604;BME280;41468;48.838;9.330;2023-01-16T09:50:03;95907.28;;;5.42;54.84
55604;BME280;41468;48.838;9.330;2023-01-16T09:52:34;95901.88;;;5.42;54.20
55604;BME280;41468;48.838;9.330;2023-01-16T09:55:30;95894.13;;;5.47;53.53
55604;BME280;41468;48.838;9.330;2023-01-16T09:58:20;95889.44;;;5.59;53.96
55604;BME280;41468;48.838;9.330;2023-01-16T10:01:08;95884.41;;;5.64;53.83
55604;BME280;41468;48.838;9.330;2023-01-16T10:03:36;95883.22;;;5.65;53.74
55604;BME280;41468;48.838;9.330;2023-01-16T10:06:26;95874.69;;;5.67;52.88
55604;BME280;41468;48.838;9.330;2023-01-16T10:09:11;95874.66;;;5.78;52.27
55604;BME280;41468;48.838;9.330;2023-01-16T10:11:56;95859.16;;;5.82;51.89
55604;BME280;41468;48.838;9.330;2023-01-16T10:14:51;95858.78;;;5.83;51.72
55604;BME280;41468;48.838;9.330;2023-01-16T10:28:43;95805.72;;;5.93;50.27
55604;BME280;41468;48.838;9.330;2023-01-16T10:31:17;95792.19;;;5.89;49.77
55604;BME280;41468;48.838;9.330;2023-01-16T10:33:52;95792.97;;;5.90;49.75
55604;BME280;41468;48.838;9.330;2023-01-16T10:36:31;95801.88;;;5.94;50.40
55604;BME280;41468;48.838;9.330;2023-01-16T10:39:00;95803.78;;;5.97;49.67
55604;BME280;41468;48.838;9.330;2023-01-16T10:41:33;95818.09;;;5.97;50.01
55604;BME280;41468;48.838;9.330;2023-01-16T10:44:40;95808.03;;;5.98;50.34
55604;BME280;41468;48.838;9.330;2023-01-16T10:47:31;95809.53;;;6.03;50.97
55604;BME280;41468;48.838;9.330;2023-01-16T10:50:19;95784.06;;;5.96;51.01
55604;BME280;41468;48.838;9.330;2023-01-16T10:53:06;95797.94;;;6.02;50.50
55604;BME280;41468;48.838;9.330;2023-01-16T10:55:34;95778.56;;;6.07;50.89
55604;BME280;41468;48.838;9.330;2023-01-16T10:58:05;95787.03;;;6.09;51.04
55604;BME280;41468;48.838;9.330;2023-01-16T11:00:35;95776.16;;;6.16;51.21
55604;BME280;41468;48.838;9.330;2023-01-16T11:03:36;95778.47;;;6.14;51.17
55604;BME280;41468;48.838;9.330;2023-01-16T11:06:08;95762.97;;;6.18;52.44
55604;BME280;41468;48.838;9.330;2023-01-16T11:08:36;95775.31;;;6.23;53.25
55604;BME280;41468;48.838;9.330;2023-01-16T11:11:03;95748.97;;;6.27;51.90
55604;BME280;41468;48.838;9.330;2023-01-16T11:13:31;95762.84;;;6.33;51.10
55604;BME280;41468;48.838;9.330;2023-01-16T11:16:22;95762.84;;;6.33;52.09
55604;BME280;41468;48.838;9.330;2023-01-16T11:21:43;95737.38;;;6.23;58.06
55604;BME280;41468;48.838;9.330;2023-01-16T11:24:22;95735.47;;;6.20;58.29
55604;BME280;41468;48.838;9.330;2023-01-16T11:26:52;95724.63;;;6.24;57.34
55604;BME280;41468;48.838;9.330;2023-01-16T11:29:21;95720.34;;;6.26;55.13
55604;BME280;41468;48.838;9.330;2023-01-16T11:31:57;95707.13;;;6.32;54.39
55604;BME280;41468;48.838;9.330;2023-01-16T11:34:26;95714.03;;;6.36;54.46
55604;BME280;41468;48.838;9.330;2023-01-16T11:36:56;95691.63;;;6.32;58.14
55604;BME280;41468;48.838;9.330;2023-01-16T11:39:25;95699.06;;;6.25;59.86
55604;BME280;41468;48.838;9.330;2023-01-16T11:41:56;95675.09;;;6.19;60.13
55604;BME280;41468;48.838;9.330;2023-01-16T11:47:14;95655.38;;;6.19;61.51
55604;BME280;41468;48.838;9.330;2023-01-16T11:49:46;95649.91;;;6.23;61.02
55604;BME280;41468;48.838;9.330;2023-01-16T11:52:24;95636.75;;;6.25;61.31
55604;BME280;41468;48.838;9.330;2023-01-16T11:54:58;95630.56;;;6.24;61.55
55604;BME280;41468;48.838;9.330;2023-01-16T12:02:49;95605.97;;;6.08;64.61
55604;BME280;41468;48.838;9.330;2023-01-16T12:05:28;95592.75;;;6.13;65.80
55604;BME280;41468;48.838;9.330;2023-01-16T12:11:08;95579.09;;;6.20;64.54
55604;BME280;41468;48.838;9.330;2023-01-16T12:20:08;95557.66;;;6.33;63.97
55604;BME280;41468;48.838;9.330;2023-01-16T12:25:30;95549.03;;;6.42;64.78
55604;BME280;41468;48.838;9.330;2023-01-16T12:33:22;95531.19;;;6.45;65.36
55604;BME280;41468;48.838;9.330;2023-01-16T12:36:01;95517.81;;;6.61;64.69
55604;BME280;41468;48.838;9.330;2023-01-16T12:38:46;95515.44;;;6.63;64.52
55604;BME280;41468;48.838;9.330;2023-01-16T12:41:28;95516.47;;;6.73;64.82
55604;BME280;41468;48.838;9.330;2023-01-16T12:53:23;95505.88;;;6.82;64.24
55604;BME280;41468;48.838;9.330;2023-01-16T12:56:13;95487.69;;;6.82;63.38
55604;BME280;41468;48.838;9.330;2023-01-16T12:58:50;95474.13;;;6.82;63.45
55604;BME280;41468;48.838;9.330;2023-01-16T13:01:24;95468.63;;;6.86;63.81
55604;BME280;41468;48.838;9.330;2023-01-16T13:03:55;95457.69;;;6.93;63.74
55604;BME280;41468;48.838;9.330;2023-01-16T13:06:36;95446.03;;;6.93;63.88
55604;BME280;41468;48.838;9.330;2023-01-16T13:09:11;95443.22;;;7.00;63.60
55604;BME280;41468;48.838;9.330;2023-01-16T13:11:55;95436.66;;;6.97;63.57
55604;BME280;41468;48.838;9.330;2023-01-16T13:14:44;95432.00;;;6.98;63.73
55604;BME280;41468;48.838;9.330;2023-01-16T13:17:19;95427.69;;;7.00;63.75
55604;BME280;41468;48.838;9.330;2023-01-16T13:19:58;95421.13;;;7.01;63.30
55604;BME280;41468;48.838;9.330;2023-01-16T13:22:30;95421.81;;;7.05;63.78
55604;BME280;41468;48.838;9.330;2023-01-16T13:25:16;95418.63;;;7.11;63.42
55604;BME280;41468;48.838;9.330;2023-01-16T13:27:49;95417.84;;;7.10;63.78
55604;BME280;41468;48.838;9.330;2023-01-16T13:30:18;95413.91;;;7.15;63.96
55604;BME280;41468;48.838;9.330;2023-01-16T13:32:56;95417.50;;;7.28;63.43
55604;BME280;41468;48.838;9.330;2023-01-16T13:35:34;95409.38;;;7.28;63.35
55604;BME280;41468;48.838;9.330;2023-01-16T13:44:03;95377.72;;;7.41;61.12
55604;BME280;41468;48.838;9.330;2023-01-16T13:46:51;95380.56;;;7.54;61.61
55604;BME280;41468;48.838;9.330;2023-01-16T13:49:23;95364.78;;;7.69;61.46
55604;BME280;41468;48.838;9.330;2023-01-16T13:51:52;95371.94;;;7.79;60.42
55604;BME280;41468;48.838;9.330;2023-01-16T13:54:22;95372.97;;;7.85;60.04
55604;BME280;41468;48.838;9.330;2023-01-16T13:56:59;95369.22;;;7.79;60.41
55604;BME280;41468;48.838;9.330;2023-01-16T14:01:57;95356.50;;;7.92;61.28
55604;BME280;41468;48.838;9.330;2023-01-16T14:04:27;95364.63;;;7.92;60.47
55604;BME280;41468;48.838;9.330;2023-01-16T14:08:04;95362.38;;;7.71;60.01
55604;BME280;41468;48.838;9.330;2023-01-16T14:10:24;95365.38;;;7.77;60.49
55604;BME280;41468;48.838;9.330;2023-01-16T14:15:55;95358.91;;;7.70;61.97
55604;BME280;41468;48.838;9.330;2023-01-16T14:21:28;95346.31;;;7.60;61.10
55604;BME280;41468;48.838;9.330;2023-01-16T14:23:59;95334.97;;;7.65;60.73
55604;BME280;41468;48.838;9.330;2023-01-16T14:29:23;95320.63;;;7.65;58.93
55604;BME280;41468;48.838;9.330;2023-01-16T14:34:51;95326.28;;;7.54;58.05
55604;BME280;41468;48.838;9.330;2023-01-16T14:37:26;95318.56;;;7.52;58.59
55604;BME280;41468;48.838;9.330;2023-01-16T14:39:59;95324.75;;;7.53;58.71
55604;BME280;41468;48.838;9.330;2023-01-16T14:42:52;95323.84;;;7.60;58.97
55604;BME280;41468;48.838;9.330;2023-01-16T14:45:40;95310.06;;;7.50;58.80
55604;BME280;41468;48.838;9.330;2023-01-16T14:48:32;95301.94;;;7.50;59.28
55604;BME280;41468;48.838;9.330;2023-01-16T14:51:53;95286.50;;;7.47;58.98
55604;BME280;41468;48.838;9.330;2023-01-16T14:54:39;95288.44;;;7.47;59.78
55604;BME280;41468;48.838;9.330;2023-01-16T14:57:34;95279.19;;;7.44;59.76
55604;BME280;41468;48.838;9.330;2023-01-16T15:00:07;95266.44;;;7.41;59.86
55604;BME280;41468;48.838;9.330;2023-01-16T15:03:00;95261.53;;;7.36;60.42
55604;BME280;41468;48.838;9.330;2023-01-16T15:05:32;95258.97;;;7.29;60.11
55604;BME280;41468;48.838;9.330;2023-01-16T15:08:25;95263.34;;;7.23;60.04
55604;BME280;41468;48.838;9.330;2023-01-16T15:10:53;95248.81;;;7.13;59.71
55604;BME280;41468;48.838;9.330;2023-01-16T15:13:30;95254.31;;;7.10;60.09
55604;BME280;41468;48.838;9.330;2023-01-16T15:16:19;95240.91;;;7.02;60.80
55604;BME280;41468;48.838;9.330;2023-01-16T15:19:20;95233.59;;;6.99;61.11
55604;BME280;41468;48.838;9.330;2023-01-16T15:22:18;95241.78;;;6.96;61.45
55604;BME280;41468;48.838;9.330;2023-01-16T15:24:53;95223.59;;;6.96;60.89
55604;BME280;41468;48.838;9.330;2023-01-16T15:27:28;95230.00;;;6.86;61.37
55604;BME280;41468;48.838;9.330;2023-01-16T15:29:58;95236.75;;;6.78;61.98
55604;BME280;41468;48.838;9.330;2023-01-16T15:32:27;95239.84;;;6.76;61.95